sensor_id;sensor_type;location;lat;lon;timestamp;P1;durP1;ratioP1;P2;durP2;ratioP2
85001;SDS011;75323;31.624;-8.002;2024-02-26T00:01:39;11.80;;;4.43;;
85001;SDS011;75323;31.624;-8.002;2024-02-26T00:04:05;11.80;;;4.90;;
85001;SDS011;75323;31.624;-8.002;2024-02-26T00:06:30;12.20;;;4.95;;
85001;SDS011;75323;31.624;-8.002;2024-02-26T00:08:56;14.48;;;5.18;;
85001;SDS011;75323;31.624;-8.002;2024-02-26T00:11:22;14.13;;;5.43;;
85001;SDS011;75323;31.624;-8.002;2024-02-26T00:13:48;13.93;;;5.40;;
85001;SDS011;75323;31.624;-8.002;2024-02-26T00:16:14;11.80;;;5.07;;
85001;SDS011;75323;31.624;-8.002;2024-02-26T00:18:40;14.57;;;5.13;;
85001;SDS011;75323;31.624;-8.002;2024-02-26T00:21:05;13.63;;;5.20;;
85001;SDS011;75323;31.624;-8.002;2024-02-26T00:23:31;9.18;;;5.78;;
85001;SDS011;75323;31.624;-8.002;2024-02-26T00:25:57;11.77;;;5.47;;
85001;SDS011;75323;31.624;-8.002;2024-02-26T00:28:23;14.73;;;6.28;;
85001;SDS011;75323;31.624;-8.002;2024-02-26T00:30:50;15.20;;;6.53;;
85001;SDS011;75323;31.624;-8.002;2024-02-26T00:33:20;17.33;;;7.20;;
85001;SDS011;75323;31.624;-8.002;2024-02-26T00:35:47;12.40;;;4.82;;
85001;SDS011;75323;31.624;-8.002;2024-02-26T00:38:13;16.75;;;5.43;;
85001;SDS011;75323;31.624;-8.002;2024-02-26T00:40:39;13.05;;;5.47;;
85001;SDS011;75323;31.624;-8.002;2024-02-26T00:43:06;10.63;;;4.07;;
85001;SDS011;75323;31.624;-8.002;2024-02-26T00:45:32;11.43;;;4.45;;
85001;SDS011;75323;31.624;-8.002;2024-02-26T00:47:58;10.35;;;4.97;;
85001;SDS011;75323;31.624;-8.002;2024-02-26T00:50:26;14.38;;;5.90;;
85001;SDS011;75323;31.624;-8.002;2024-02-26T00:52:52;10.18;;;4.68;;
85001;SDS011;75323;31.624;-8.002;2024-02-26T00:55:18;22.58;;;7.32;;
85001;SDS011;75323;31.624;-8.002;2024-02-26T00:57:44;14.20;;;6.82;;
85001;SDS011;75323;31.624;-8.002;2024-02-26T01:00:10;14.10;;;5.47;;
85001;SDS011;75323;31.624;-8.002;2024-02-26T01:02:37;12.63;;;5.55;;
85001;SDS011;75323;31.624;-8.002;2024-02-26T01:05:04;18.60;;;6.35;;
85001;SDS011;75323;31.624;-8.002;2024-02-26T01:07:31;15.30;;;7.47;;
85001;SDS011;75323;31.624;-8.002;2024-02-26T01:10:04;21.08;;;7.15;;
85001;SDS011;75323;31.624;-8.002;2024-02-26T01:12:31;13.80;;;7.47;;
85001;SDS011;75323;31.624;-8.002;2024-02-26T01:15:00;19.42;;;6.47;;
85001;SDS011;75323;31.624;-8.002;2024-02-26T01:17:28;18.35;;;7.53;;
85001;SDS011;75323;31.624;-8.002;2024-02-26T01:19:53;18.38;;;8.15;;
85001;SDS011;75323;31.624;-8.002;2024-02-26T01:22:19;15.70;;;8.18;;
85001;SDS011;75323;31.624;-8.002;2024-02-26T01:24:45;11.52;;;4.15;;
85001;SDS011;75323;31.624;-8.002;2024-02-26T01:27:11;16.13;;;4.88;;
85001;SDS011;75323;31.624;-8.002;2024-02-26T01:29:37;17.15;;;8.27;;
85001;SDS011;75323;31.624;-8.002;2024-02-26T01:32:03;10.90;;;5.30;;
85001;SDS011;75323;31.624;-8.002;2024-02-26T01:34:31;13.85;;;5.28;;
85001;SDS011;75323;31.624;-8.002;2024-02-26T01:36:57;16.70;;;6.20;;
85001;SDS011;75323;31.624;-8.002;2024-02-26T01:39:23;15.40;;;5.32;;
85001;SDS011;75323;31.624;-8.002;2024-02-26T01:41:49;13.48;;;3.08;;
85001;SDS011;75323;31.624;-8.002;2024-02-26T01:44:15;19.05;;;4.40;;
85001;SDS011;75323;31.624;-8.002;2024-02-26T01:46:41;16.27;;;3.17;;
85001;SDS011;75323;31.624;-8.002;2024-02-26T01:49:08;11.93;;;4.72;;
85001;SDS011;75323;31.624;-8.002;2024-02-26T01:51:34;12.10;;;4.45;;
85001;SDS011;75323;31.624;-8.002;2024-02-26T01:54:00;11.80;;;4.00;;
85001;SDS011;75323;31.624;-8.002;2024-02-26T01:56:27;16.55;;;4.97;;
85001;SDS011;75323;31.624;-8.002;2024-02-26T01:58:57;11.32;;;5.03;;
85001;SDS011;75323;31.624;-8.002;2024-02-26T02:01:26;12.13;;;3.95;;
85001;SDS011;75323;31.624;-8.002;2024-02-26T02:03:54;11.20;;;4.43;;
85001;SDS011;75323;31.624;-8.002;2024-02-26T02:06:21;13.43;;;5.07;;
85001;SDS011;75323;31.624;-8.002;2024-02-26T02:08:47;9.32;;;4.03;;
85001;SDS011;75323;31.624;-8.002;2024-02-26T02:11:13;12.13;;;4.97;;
85001;SDS011;75323;31.624;-8.002;2024-02-26T02:13:40;15.70;;;5.65;;
85001;SDS011;75323;31.624;-8.002;2024-02-26T02:16:06;13.93;;;4.68;;
85001;SDS011;75323;31.624;-8.002;2024-02-26T02:18:32;7.93;;;4.63;;
85001;SDS011;75323;31.624;-8.002;2024-02-26T02:21:00;10.65;;;5.28;;
85001;SDS011;75323;31.624;-8.002;2024-02-26T02:23:25;17.23;;;6.60;;
85001;SDS011;75323;31.624;-8.002;2024-02-26T02:25:52;12.80;;;5.22;;
85001;SDS011;75323;31.624;-8.002;2024-02-26T02:28:18;15.70;;;5.60;;
85001;SDS011;75323;31.624;-8.002;2024-02-26T02:30:44;14.05;;;4.00;;
85001;SDS011;75323;31.624;-8.002;2024-02-26T02:33:10;15.68;;;5.90;;
85001;SDS011;75323;31.624;-8.002;2024-02-26T02:35:37;14.73;;;4.82;;
85001;SDS011;75323;31.624;-8.002;2024-02-26T02:38:03;15.00;;;4.65;;
85001;SDS011;75323;31.624;-8.002;2024-02-26T02:40:29;16.35;;;5.75;;
85001;SDS011;75323;31.624;-8.002;2024-02-26T02:42:55;15.85;;;6.47;;
85001;SDS011;75323;31.624;-8.002;2024-02-26T02:45:20;15.93;;;5.60;;
85001;SDS011;75323;31.624;-8.002;2024-02-26T02:47:46;16.25;;;6.53;;
85001;SDS011;75323;31.624;-8.002;2024-02-26T02:50:12;18.90;;;4.63;;
85001;SDS011;75323;31.624;-8.002;2024-02-26T02:52:37;17.80;;;6.68;;
85001;SDS011;75323;31.624;-8.002;2024-02-26T02:55:04;21.25;;;8.15;;
85001;SDS011;75323;31.624;-8.002;2024-02-26T02:57:30;16.17;;;7.72;;
85001;SDS011;75323;31.624;-8.002;2024-02-26T02:59:56;15.18;;;7.90;;
85001;SDS011;75323;31.624;-8.002;2024-02-26T03:02:22;20.48;;;8.48;;
85001;SDS011;75323;31.624;-8.002;2024-02-26T03:04:50;26.55;;;8.85;;
85001;SDS011;75323;31.624;-8.002;2024-02-26T03:07:16;20.88;;;8.30;;
85001;SDS011;75323;31.624;-8.002;2024-02-26T03:09:42;23.83;;;8.88;;
85001;SDS011;75323;31.624;-8.002;2024-02-26T03:12:08;19.58;;;9.25;;
85001;SDS011;75323;31.624;-8.002;2024-02-26T03:14:34;19.70;;;7.32;;
85001;SDS011;75323;31.624;-8.002;2024-02-26T03:17:00;18.98;;;8.45;;
85001;SDS011;75323;31.624;-8.002;2024-02-26T03:19:26;21.05;;;9.18;;
85001;SDS011;75323;31.624;-8.002;2024-02-26T03:21:52;16.75;;;9.15;;
85001;SDS011;75323;31.624;-8.002;2024-02-26T03:24:17;22.92;;;9.55;;
85001;SDS011;75323;31.624;-8.002;2024-02-26T03:26:43;21.63;;;9.52;;
85001;SDS011;75323;31.624;-8.002;2024-02-26T03:29:09;21.10;;;9.77;;
85001;SDS011;75323;31.624;-8.002;2024-02-26T03:31:35;24.02;;;9.63;;
85001;SDS011;75323;31.624;-8.002;2024-02-26T03:34:01;22.45;;;10.10;;
85001;SDS011;75323;31.624;-8.002;2024-02-26T03:36:27;23.20;;;9.70;;
85001;SDS011;75323;31.624;-8.002;2024-02-26T03:38:53;20.48;;;9.10;;
85001;SDS011;75323;31.624;-8.002;2024-02-26T03:41:19;23.95;;;9.95;;
85001;SDS011;75323;31.624;-8.002;2024-02-26T03:43:44;23.48;;;9.27;;
85001;SDS011;75323;31.624;-8.002;2024-02-26T03:46:10;27.60;;;9.38;;
85001;SDS011;75323;31.624;-8.002;2024-02-26T03:48:39;18.88;;;8.48;;
85001;SDS011;75323;31.624;-8.002;2024-02-26T03:51:06;20.88;;;10.75;;
85001;SDS011;75323;31.624;-8.002;2024-02-26T03:53:31;20.60;;;11.45;;
85001;SDS011;75323;31.624;-8.002;2024-02-26T03:55:57;25.23;;;10.95;;
85001;SDS011;75323;31.624;-8.002;2024-02-26T03:58:23;23.63;;;9.88;;
85001;SDS011;75323;31.624;-8.002;2024-02-26T04:00:48;29.73;;;11.55;;
85001;SDS011;75323;31.624;-8.002;2024-02-26T04:03:14;18.42;;;9.38;;
85001;SDS011;75323;31.624;-8.002;2024-02-26T04:05:40;21.90;;;9.93;;
85001;SDS011;75323;31.624;-8.002;2024-02-26T04:08:06;26.83;;;9.15;;
85001;SDS011;75323;31.624;-8.002;2024-02-26T04:10:35;19.48;;;9.52;;
85001;SDS011;75323;31.624;-8.002;2024-02-26T04:13:03;20.15;;;10.00;;
85001;SDS011;75323;31.624;-8.002;2024-02-26T04:15:30;21.13;;;9.18;;
85001;SDS011;75323;31.624;-8.002;2024-02-26T04:17:56;21.25;;;10.63;;
85001;SDS011;75323;31.624;-8.002;2024-02-26T04:20:22;25.33;;;7.75;;
85001;SDS011;75323;31.624;-8.002;2024-02-26T04:22:48;24.77;;;9.80;;
85001;SDS011;75323;31.624;-8.002;2024-02-26T04:25:14;22.90;;;7.47;;
85001;SDS011;75323;31.624;-8.002;2024-02-26T04:27:40;24.77;;;10.60;;
85001;SDS011;75323;31.624;-8.002;2024-02-26T04:30:06;17.75;;;10.57;;
85001;SDS011;75323;31.624;-8.002;2024-02-26T04:32:33;23.25;;;11.02;;
85001;SDS011;75323;31.624;-8.002;2024-02-26T04:35:00;24.90;;;10.52;;
85001;SDS011;75323;31.624;-8.002;2024-02-26T04:37:26;21.15;;;9.27;;
85001;SDS011;75323;31.624;-8.002;2024-02-26T04:39:57;24.10;;;11.32;;
85001;SDS011;75323;31.624;-8.002;2024-02-26T04:42:24;21.73;;;8.02;;
85001;SDS011;75323;31.624;-8.002;2024-02-26T04:44:50;30.23;;;10.52;;
85001;SDS011;75323;31.624;-8.002;2024-02-26T04:47:16;24.42;;;10.23;;
85001;SDS011;75323;31.624;-8.002;2024-02-26T04:49:41;23.38;;;10.70;;
85001;SDS011;75323;31.624;-8.002;2024-02-26T04:52:07;19.02;;;10.25;;
85001;SDS011;75323;31.624;-8.002;2024-02-26T04:54:33;27.98;;;9.45;;
85001;SDS011;75323;31.624;-8.002;2024-02-26T04:56:59;21.75;;;10.95;;
85001;SDS011;75323;31.624;-8.002;2024-02-26T04:59:25;22.38;;;9.10;;
85001;SDS011;75323;31.624;-8.002;2024-02-26T05:01:50;19.70;;;8.07;;
85001;SDS011;75323;31.624;-8.002;2024-02-26T05:04:18;22.48;;;9.65;;
85001;SDS011;75323;31.624;-8.002;2024-02-26T05:06:44;20.40;;;10.07;;
85001;SDS011;75323;31.624;-8.002;2024-02-26T05:09:10;22.25;;;9.18;;
85001;SDS011;75323;31.624;-8.002;2024-02-26T05:11:35;23.23;;;9.10;;
85001;SDS011;75323;31.624;-8.002;2024-02-26T05:14:01;31.00;;;10.57;;
85001;SDS011;75323;31.624;-8.002;2024-02-26T05:16:27;21.00;;;8.88;;
85001;SDS011;75323;31.624;-8.002;2024-02-26T05:18:55;24.52;;;7.75;;
85001;SDS011;75323;31.624;-8.002;2024-02-26T05:21:21;21.95;;;9.48;;
85001;SDS011;75323;31.624;-8.002;2024-02-26T05:23:46;24.77;;;9.05;;
85001;SDS011;75323;31.624;-8.002;2024-02-26T05:26:19;24.45;;;9.68;;
85001;SDS011;75323;31.624;-8.002;2024-02-26T05:28:48;21.30;;;9.23;;
85001;SDS011;75323;31.624;-8.002;2024-02-26T05:31:14;24.13;;;9.13;;
85001;SDS011;75323;31.624;-8.002;2024-02-26T05:33:40;22.65;;;9.88;;
85001;SDS011;75323;31.624;-8.002;2024-02-26T05:36:06;22.63;;;7.82;;
85001;SDS011;75323;31.624;-8.002;2024-02-26T05:38:32;22.80;;;9.65;;
85001;SDS011;75323;31.624;-8.002;2024-02-26T05:40:58;21.63;;;8.98;;
85001;SDS011;75323;31.624;-8.002;2024-02-26T05:43:24;25.67;;;10.63;;
85001;SDS011;75323;31.624;-8.002;2024-02-26T05:45:50;27.88;;;10.82;;
85001;SDS011;75323;31.624;-8.002;2024-02-26T05:48:17;26.95;;;10.70;;
85001;SDS011;75323;31.624;-8.002;2024-02-26T05:50:44;20.77;;;10.60;;
85001;SDS011;75323;31.624;-8.002;2024-02-26T05:53:10;23.33;;;11.30;;
85001;SDS011;75323;31.624;-8.002;2024-02-26T05:55:36;24.95;;;10.95;;
85001;SDS011;75323;31.624;-8.002;2024-02-26T05:58:02;24.50;;;12.13;;
85001;SDS011;75323;31.624;-8.002;2024-02-26T06:00:28;21.98;;;10.25;;
85001;SDS011;75323;31.624;-8.002;2024-02-26T06:02:54;28.23;;;13.70;;
85001;SDS011;75323;31.624;-8.002;2024-02-26T06:05:20;24.30;;;11.77;;
85001;SDS011;75323;31.624;-8.002;2024-02-26T06:07:46;23.67;;;12.48;;
85001;SDS011;75323;31.624;-8.002;2024-02-26T06:10:11;27.58;;;13.10;;
85001;SDS011;75323;31.624;-8.002;2024-02-26T06:12:39;24.83;;;11.98;;
85001;SDS011;75323;31.624;-8.002;2024-02-26T06:15:05;26.75;;;15.68;;
85001;SDS011;75323;31.624;-8.002;2024-02-26T06:17:31;30.63;;;13.52;;
85001;SDS011;75323;31.624;-8.002;2024-02-26T06:19:57;34.92;;;14.95;;
85001;SDS011;75323;31.624;-8.002;2024-02-26T06:22:24;38.80;;;14.73;;
85001;SDS011;75323;31.624;-8.002;2024-02-26T06:24:50;36.78;;;15.48;;
85001;SDS011;75323;31.624;-8.002;2024-02-26T06:27:16;49.05;;;17.35;;
85001;SDS011;75323;31.624;-8.002;2024-02-26T06:29:42;42.80;;;15.77;;
85001;SDS011;75323;31.624;-8.002;2024-02-26T06:32:08;37.97;;;16.48;;
85001;SDS011;75323;31.624;-8.002;2024-02-26T06:34:33;43.22;;;15.40;;
85001;SDS011;75323;31.624;-8.002;2024-02-26T06:36:59;43.30;;;15.55;;
85001;SDS011;75323;31.624;-8.002;2024-02-26T06:39:25;37.58;;;17.02;;
85001;SDS011;75323;31.624;-8.002;2024-02-26T06:41:51;48.03;;;17.17;;
85001;SDS011;75323;31.624;-8.002;2024-02-26T06:44:25;42.65;;;18.83;;
85001;SDS011;75323;31.624;-8.002;2024-02-26T06:46:51;37.15;;;17.10;;
85001;SDS011;75323;31.624;-8.002;2024-02-26T06:49:17;36.58;;;16.48;;
85001;SDS011;75323;31.624;-8.002;2024-02-26T06:51:42;34.45;;;16.38;;
85001;SDS011;75323;31.624;-8.002;2024-02-26T06:54:08;40.45;;;16.33;;
85001;SDS011;75323;31.624;-8.002;2024-02-26T06:56:34;33.65;;;14.88;;
85001;SDS011;75323;31.624;-8.002;2024-02-26T06:59:00;36.83;;;15.88;;
85001;SDS011;75323;31.624;-8.002;2024-02-26T07:01:26;39.55;;;20.02;;
85001;SDS011;75323;31.624;-8.002;2024-02-26T07:03:52;38.92;;;17.58;;
85001;SDS011;75323;31.624;-8.002;2024-02-26T07:06:17;41.42;;;18.42;;
85001;SDS011;75323;31.624;-8.002;2024-02-26T07:08:43;39.97;;;17.35;;
85001;SDS011;75323;31.624;-8.002;2024-02-26T07:11:10;44.97;;;17.67;;
85001;SDS011;75323;31.624;-8.002;2024-02-26T07:13:36;34.22;;;15.95;;
85001;SDS011;75323;31.624;-8.002;2024-02-26T07:16:02;43.65;;;18.90;;
85001;SDS011;75323;31.624;-8.002;2024-02-26T07:18:28;39.08;;;17.63;;
85001;SDS011;75323;31.624;-8.002;2024-02-26T07:20:54;39.58;;;17.80;;
85001;SDS011;75323;31.624;-8.002;2024-02-26T07:23:21;38.67;;;19.05;;
85001;SDS011;75323;31.624;-8.002;2024-02-26T07:25:47;36.42;;;17.05;;
85001;SDS011;75323;31.624;-8.002;2024-02-26T07:28:14;38.10;;;16.45;;
85001;SDS011;75323;31.624;-8.002;2024-02-26T07:30:40;41.78;;;18.40;;
85001;SDS011;75323;31.624;-8.002;2024-02-26T07:33:05;40.95;;;19.15;;
85001;SDS011;75323;31.624;-8.002;2024-02-26T07:35:32;42.90;;;19.88;;
85001;SDS011;75323;31.624;-8.002;2024-02-26T07:37:58;40.58;;;17.02;;
85001;SDS011;75323;31.624;-8.002;2024-02-26T07:40:24;49.08;;;20.27;;
85001;SDS011;75323;31.624;-8.002;2024-02-26T07:42:50;37.55;;;18.55;;
85001;SDS011;75323;31.624;-8.002;2024-02-26T07:45:16;39.45;;;17.42;;
85001;SDS011;75323;31.624;-8.002;2024-02-26T07:47:45;48.08;;;18.58;;
85001;SDS011;75323;31.624;-8.002;2024-02-26T07:50:11;41.40;;;17.13;;
85001;SDS011;75323;31.624;-8.002;2024-02-26T07:52:37;37.78;;;18.30;;
85001;SDS011;75323;31.624;-8.002;2024-02-26T07:55:04;34.90;;;16.52;;
85001;SDS011;75323;31.624;-8.002;2024-02-26T07:57:31;40.60;;;18.52;;
85001;SDS011;75323;31.624;-8.002;2024-02-26T07:59:59;33.90;;;16.65;;
85001;SDS011;75323;31.624;-8.002;2024-02-26T08:02:25;38.80;;;18.05;;
85001;SDS011;75323;31.624;-8.002;2024-02-26T08:04:50;34.92;;;17.70;;
85001;SDS011;75323;31.624;-8.002;2024-02-26T08:07:16;39.13;;;18.73;;
85001;SDS011;75323;31.624;-8.002;2024-02-26T08:09:42;36.60;;;18.55;;
85001;SDS011;75323;31.624;-8.002;2024-02-26T08:12:08;34.70;;;16.00;;
85001;SDS011;75323;31.624;-8.002;2024-02-26T08:14:34;44.47;;;19.27;;
85001;SDS011;75323;31.624;-8.002;2024-02-26T08:17:00;35.60;;;15.70;;
85001;SDS011;75323;31.624;-8.002;2024-02-26T08:19:26;32.10;;;15.98;;
85001;SDS011;75323;31.624;-8.002;2024-02-26T08:21:52;35.22;;;14.48;;
85001;SDS011;75323;31.624;-8.002;2024-02-26T08:24:18;37.63;;;15.38;;
85001;SDS011;75323;31.624;-8.002;2024-02-26T08:26:44;35.03;;;14.15;;
85001;SDS011;75323;31.624;-8.002;2024-02-26T08:29:10;36.22;;;16.02;;
85001;SDS011;75323;31.624;-8.002;2024-02-26T08:31:36;32.78;;;12.77;;
85001;SDS011;75323;31.624;-8.002;2024-02-26T08:34:05;38.05;;;15.68;;
85001;SDS011;75323;31.624;-8.002;2024-02-26T08:36:33;32.10;;;15.65;;
85001;SDS011;75323;31.624;-8.002;2024-02-26T08:38:59;34.38;;;14.73;;
85001;SDS011;75323;31.624;-8.002;2024-02-26T08:41:25;33.65;;;14.23;;
85001;SDS011;75323;31.624;-8.002;2024-02-26T08:43:51;34.42;;;14.13;;
85001;SDS011;75323;31.624;-8.002;2024-02-26T08:46:17;34.00;;;13.32;;
85001;SDS011;75323;31.624;-8.002;2024-02-26T08:48:42;32.92;;;13.88;;
85001;SDS011;75323;31.624;-8.002;2024-02-26T08:51:08;34.25;;;15.90;;
85001;SDS011;75323;31.624;-8.002;2024-02-26T08:53:36;35.78;;;15.63;;
85001;SDS011;75323;31.624;-8.002;2024-02-26T08:56:02;32.30;;;12.02;;
85001;SDS011;75323;31.624;-8.002;2024-02-26T08:58:28;29.90;;;15.05;;
85001;SDS011;75323;31.624;-8.002;2024-02-26T09:00:54;35.00;;;15.90;;
85001;SDS011;75323;31.624;-8.002;2024-02-26T09:03:20;29.15;;;13.43;;
85001;SDS011;75323;31.624;-8.002;2024-02-26T09:05:46;33.28;;;15.07;;
85001;SDS011;75323;31.624;-8.002;2024-02-26T09:08:12;30.85;;;13.52;;
85001;SDS011;75323;31.624;-8.002;2024-02-26T09:10:38;36.78;;;13.73;;
85001;SDS011;75323;31.624;-8.002;2024-02-26T09:13:04;30.35;;;11.77;;
85001;SDS011;75323;31.624;-8.002;2024-02-26T09:15:30;27.52;;;11.93;;
85001;SDS011;75323;31.624;-8.002;2024-02-26T09:17:56;30.85;;;13.90;;
85001;SDS011;75323;31.624;-8.002;2024-02-26T09:20:22;32.10;;;12.85;;
85001;SDS011;75323;31.624;-8.002;2024-02-26T09:22:49;28.30;;;12.40;;
85001;SDS011;75323;31.624;-8.002;2024-02-26T09:25:16;33.83;;;12.85;;
85001;SDS011;75323;31.624;-8.002;2024-02-26T09:27:42;32.13;;;11.32;;
85001;SDS011;75323;31.624;-8.002;2024-02-26T09:30:09;28.08;;;11.75;;
85001;SDS011;75323;31.624;-8.002;2024-02-26T09:32:37;27.05;;;10.30;;
85001;SDS011;75323;31.624;-8.002;2024-02-26T09:35:03;31.75;;;12.05;;
85001;SDS011;75323;31.624;-8.002;2024-02-26T09:37:29;27.98;;;11.88;;
85001;SDS011;75323;31.624;-8.002;2024-02-26T09:39:55;27.17;;;11.57;;
85001;SDS011;75323;31.624;-8.002;2024-02-26T09:42:21;24.67;;;9.95;;
85001;SDS011;75323;31.624;-8.002;2024-02-26T09:44:55;25.63;;;9.75;;
85001;SDS011;75323;31.624;-8.002;2024-02-26T09:47:24;25.20;;;10.30;;
85001;SDS011;75323;31.624;-8.002;2024-02-26T09:49:52;21.77;;;9.55;;
85001;SDS011;75323;31.624;-8.002;2024-02-26T09:52:19;25.83;;;8.85;;
85001;SDS011;75323;31.624;-8.002;2024-02-26T09:54:47;22.38;;;10.63;;
85001;SDS011;75323;31.624;-8.002;2024-02-26T09:57:13;27.77;;;9.23;;
85001;SDS011;75323;31.624;-8.002;2024-02-26T09:59:42;23.77;;;9.15;;
85001;SDS011;75323;31.624;-8.002;2024-02-26T10:02:12;21.40;;;8.98;;
85001;SDS011;75323;31.624;-8.002;2024-02-26T10:04:41;17.77;;;7.38;;
85001;SDS011;75323;31.624;-8.002;2024-02-26T10:07:11;22.58;;;8.25;;
85001;SDS011;75323;31.624;-8.002;2024-02-26T10:09:38;29.73;;;9.43;;
85001;SDS011;75323;31.624;-8.002;2024-02-26T10:12:04;27.83;;;10.43;;
85001;SDS011;75323;31.624;-8.002;2024-02-26T10:14:32;21.00;;;7.38;;
85001;SDS011;75323;31.624;-8.002;2024-02-26T10:16:58;20.73;;;8.90;;
85001;SDS011;75323;31.624;-8.002;2024-02-26T10:19:27;23.25;;;8.50;;
85001;SDS011;75323;31.624;-8.002;2024-02-26T10:21:57;22.15;;;8.20;;
85001;SDS011;75323;31.624;-8.002;2024-02-26T10:24:24;22.30;;;8.30;;
85001;SDS011;75323;31.624;-8.002;2024-02-26T10:26:51;21.58;;;8.60;;
85001;SDS011;75323;31.624;-8.002;2024-02-26T10:29:18;24.35;;;9.80;;
85001;SDS011;75323;31.624;-8.002;2024-02-26T10:31:45;21.58;;;7.90;;
85001;SDS011;75323;31.624;-8.002;2024-02-26T10:34:11;20.67;;;8.98;;
85001;SDS011;75323;31.624;-8.002;2024-02-26T10:36:37;23.98;;;9.40;;
85001;SDS011;75323;31.624;-8.002;2024-02-26T10:39:06;22.52;;;9.63;;
85001;SDS011;75323;31.624;-8.002;2024-02-26T10:41:35;24.20;;;8.05;;
85001;SDS011;75323;31.624;-8.002;2024-02-26T10:44:01;20.85;;;10.02;;
85001;SDS011;75323;31.624;-8.002;2024-02-26T10:46:27;29.42;;;10.18;;
85001;SDS011;75323;31.624;-8.002;2024-02-26T10:48:53;30.40;;;10.32;;
85001;SDS011;75323;31.624;-8.002;2024-02-26T10:51:20;22.67;;;10.50;;
85001;SDS011;75323;31.624;-8.002;2024-02-26T10:53:51;21.75;;;9.25;;
85001;SDS011;75323;31.624;-8.002;2024-02-26T10:56:26;25.15;;;11.20;;
85001;SDS011;75323;31.624;-8.002;2024-02-26T10:58:55;25.83;;;11.50;;
85001;SDS011;75323;31.624;-8.002;2024-02-26T11:01:21;27.73;;;11.57;;
85001;SDS011;75323;31.624;-8.002;2024-02-26T11:03:49;25.45;;;10.82;;
85001;SDS011;75323;31.624;-8.002;2024-02-26T11:06:17;26.50;;;10.02;;
85001;SDS011;75323;31.624;-8.002;2024-02-26T11:08:52;22.25;;;8.40;;
85001;SDS011;75323;31.624;-8.002;2024-02-26T11:11:19;25.35;;;10.18;;
85001;SDS011;75323;31.624;-8.002;2024-02-26T11:13:47;28.58;;;9.98;;
85001;SDS011;75323;31.624;-8.002;2024-02-26T11:16:18;18.60;;;9.52;;
85001;SDS011;75323;31.624;-8.002;2024-02-26T11:18:46;27.40;;;10.80;;
85001;SDS011;75323;31.624;-8.002;2024-02-26T11:21:15;24.13;;;10.52;;
85001;SDS011;75323;31.624;-8.002;2024-02-26T11:23:44;20.88;;;10.68;;
85001;SDS011;75323;31.624;-8.002;2024-02-26T11:26:10;18.63;;;9.15;;
85001;SDS011;75323;31.624;-8.002;2024-02-26T11:28:36;25.15;;;10.85;;
85001;SDS011;75323;31.624;-8.002;2024-02-26T11:31:03;21.30;;;9.25;;
85001;SDS011;75323;31.624;-8.002;2024-02-26T11:33:30;22.25;;;8.57;;
85001;SDS011;75323;31.624;-8.002;2024-02-26T11:35:57;20.83;;;8.35;;
85001;SDS011;75323;31.624;-8.002;2024-02-26T11:38:24;15.15;;;9.40;;
85001;SDS011;75323;31.624;-8.002;2024-02-26T11:40:51;19.52;;;9.15;;
85001;SDS011;75323;31.624;-8.002;2024-02-26T11:43:18;19.30;;;8.23;;
85001;SDS011;75323;31.624;-8.002;2024-02-26T11:45:49;21.88;;;8.80;;
85001;SDS011;75323;31.624;-8.002;2024-02-26T11:48:20;22.15;;;9.05;;
85001;SDS011;75323;31.624;-8.002;2024-02-26T11:50:49;23.05;;;8.43;;
85001;SDS011;75323;31.624;-8.002;2024-02-26T11:58:59;14.80;;;4.68;;
85001;SDS011;75323;31.624;-8.002;2024-02-26T12:04:01;22.00;;;8.70;;
85001;SDS011;75323;31.624;-8.002;2024-02-26T12:06:28;18.40;;;7.93;;
85001;SDS011;75323;31.624;-8.002;2024-02-26T12:08:54;17.00;;;6.70;;
85001;SDS011;75323;31.624;-8.002;2024-02-26T12:11:21;11.60;;;5.82;;
85001;SDS011;75323;31.624;-8.002;2024-02-26T12:13:47;20.15;;;5.25;;
85001;SDS011;75323;31.624;-8.002;2024-02-26T12:19:08;14.77;;;5.95;;
85001;SDS011;75323;31.624;-8.002;2024-02-26T12:21:35;15.52;;;5.97;;
85001;SDS011;75323;31.624;-8.002;2024-02-26T12:24:10;15.45;;;6.30;;
85001;SDS011;75323;31.624;-8.002;2024-02-26T12:26:39;19.67;;;7.80;;
85001;SDS011;75323;31.624;-8.002;2024-02-26T12:29:05;16.02;;;5.53;;
85001;SDS011;75323;31.624;-8.002;2024-02-26T12:31:34;18.95;;;7.57;;
85001;SDS011;75323;31.624;-8.002;2024-02-26T12:34:02;16.23;;;8.75;;
85001;SDS011;75323;31.624;-8.002;2024-02-26T12:36:28;15.18;;;7.45;;
85001;SDS011;75323;31.624;-8.002;2024-02-26T12:38:55;15.10;;;9.52;;
85001;SDS011;75323;31.624;-8.002;2024-02-26T12:41:21;15.88;;;6.68;;
85001;SDS011;75323;31.624;-8.002;2024-02-26T12:43:48;17.13;;;6.80;;
85001;SDS011;75323;31.624;-8.002;2024-02-26T12:46:13;20.25;;;8.30;;
85001;SDS011;75323;31.624;-8.002;2024-02-26T12:48:43;16.88;;;8.77;;
85001;SDS011;75323;31.624;-8.002;2024-02-26T12:51:11;20.77;;;9.27;;
85001;SDS011;75323;31.624;-8.002;2024-02-26T12:53:37;18.00;;;8.23;;
85001;SDS011;75323;31.624;-8.002;2024-02-26T12:56:05;20.50;;;9.50;;
85001;SDS011;75323;31.624;-8.002;2024-02-26T12:58:36;17.38;;;8.20;;
85001;SDS011;75323;31.624;-8.002;2024-02-26T13:01:04;16.55;;;8.20;;
85001;SDS011;75323;31.624;-8.002;2024-02-26T13:03:31;15.40;;;8.45;;
85001;SDS011;75323;31.624;-8.002;2024-02-26T13:05:58;15.18;;;8.35;;
85001;SDS011;75323;31.624;-8.002;2024-02-26T13:08:24;17.92;;;7.60;;
85001;SDS011;75323;31.624;-8.002;2024-02-26T13:10:49;13.48;;;6.82;;
85001;SDS011;75323;31.624;-8.002;2024-02-26T13:13:18;12.95;;;6.03;;
85001;SDS011;75323;31.624;-8.002;2024-02-26T13:15:45;16.63;;;5.43;;
85001;SDS011;75323;31.624;-8.002;2024-02-26T13:18:12;10.93;;;7.68;;
85001;SDS011;75323;31.624;-8.002;2024-02-26T13:20:39;15.10;;;7.32;;
85001;SDS011;75323;31.624;-8.002;2024-02-26T13:23:09;16.25;;;6.88;;
85001;SDS011;75323;31.624;-8.002;2024-02-26T13:25:37;17.92;;;7.28;;
85001;SDS011;75323;31.624;-8.002;2024-02-26T13:28:19;15.38;;;6.93;;
85001;SDS011;75323;31.624;-8.002;2024-02-26T13:30:51;15.95;;;8.20;;
85001;SDS011;75323;31.624;-8.002;2024-02-26T13:33:23;15.48;;;8.52;;
85001;SDS011;75323;31.624;-8.002;2024-02-26T13:35:50;16.33;;;6.45;;
85001;SDS011;75323;31.624;-8.002;2024-02-26T13:38:16;18.75;;;6.88;;
85001;SDS011;75323;31.624;-8.002;2024-02-26T13:40:42;12.77;;;6.15;;
85001;SDS011;75323;31.624;-8.002;2024-02-26T13:43:08;17.40;;;5.78;;
85001;SDS011;75323;31.624;-8.002;2024-02-26T13:45:34;12.32;;;6.35;;
85001;SDS011;75323;31.624;-8.002;2024-02-26T13:48:01;15.50;;;6.93;;
85001;SDS011;75323;31.624;-8.002;2024-02-26T13:50:31;17.15;;;6.53;;
85001;SDS011;75323;31.624;-8.002;2024-02-26T13:52:57;15.77;;;6.05;;
85001;SDS011;75323;31.624;-8.002;2024-02-26T13:55:25;11.65;;;5.18;;
85001;SDS011;75323;31.624;-8.002;2024-02-26T13:57:53;13.50;;;5.63;;
85001;SDS011;75323;31.624;-8.002;2024-02-26T14:00:20;11.13;;;4.90;;
85001;SDS011;75323;31.624;-8.002;2024-02-26T14:02:46;11.43;;;4.95;;
85001;SDS011;75323;31.624;-8.002;2024-02-26T14:05:12;17.23;;;6.80;;
85001;SDS011;75323;31.624;-8.002;2024-02-26T14:07:38;11.63;;;4.95;;
85001;SDS011;75323;31.624;-8.002;2024-02-26T14:10:04;16.35;;;4.80;;
85001;SDS011;75323;31.624;-8.002;2024-02-26T14:12:31;17.35;;;4.80;;
85001;SDS011;75323;31.624;-8.002;2024-02-26T14:14:57;14.25;;;5.63;;
85001;SDS011;75323;31.624;-8.002;2024-02-26T14:17:25;15.95;;;4.43;;
85001;SDS011;75323;31.624;-8.002;2024-02-26T14:19:51;10.77;;;4.03;;
85001;SDS011;75323;31.624;-8.002;2024-02-26T14:22:17;13.30;;;4.75;;
85001;SDS011;75323;31.624;-8.002;2024-02-26T14:24:43;20.48;;;4.82;;